sensor_id;sensor_type;location;lat;lon;timestamp;pressure;altitude;pressure_sealevel;temperature;humidity
44839;BME280;30576;42.098;24.876;2023-06-24T00:01:35;99657.47;;;23.85;67.49
44839;BME280;30576;42.098;24.876;2023-06-24T00:04:02;99663.81;;;23.71;67.74
44839;BME280;30576;42.098;24.876;2023-06-24T00:06:27;99662.72;;;23.61;67.87
44839;BME280;30576;42.098;24.876;2023-06-24T00:08:53;99667.00;;;23.51;68.04
44839;BME280;30576;42.098;24.876;2023-06-24T00:11:28;99665.72;;;23.44;67.97
44839;BME280;30576;42.098;24.876;2023-06-24T00:13:55;99669.78;;;23.36;68.23
44839;BME280;30576;42.098;24.876;2023-06-24T00:16:20;99629.84;;;23.17;67.79
44839;BME280;30576;42.098;24.876;2023-06-24T00:18:56;99635.00;;;23.20;67.88
44839;BME280;30576;42.098;24.876;2023-06-24T00:21:26;99640.31;;;23.07;68.04
44839;BME280;30576;42.098;24.876;2023-06-24T00:24:02;99659.97;;;23.10;68.57
44839;BME280;30576;42.098;24.876;2023-06-24T00:26:30;99661.69;;;22.96;69.09
44839;BME280;30576;42.098;24.876;2023-06-24T00:28:55;99635.13;;;22.64;69.06
44839;BME280;30576;42.098;24.876;2023-06-24T00:31:21;99652.16;;;22.50;69.61
44839;BME280;30576;42.098;24.876;2023-06-24T00:33:46;99647.13;;;22.31;69.65
44839;BME280;30576;42.098;24.876;2023-06-24T00:36:13;99672.41;;;22.27;69.52
44839;BME280;30576;42.098;24.876;2023-06-24T00:38:39;99664.38;;;22.13;68.26
44839;BME280;30576;42.098;24.876;2023-06-24T00:41:04;99659.50;;;22.05;67.78
44839;BME280;30576;42.098;24.876;2023-06-24T00:43:31;99657.97;;;22.15;67.25
44839;BME280;30576;42.098;24.876;2023-06-24T00:45:57;99645.66;;;22.26;66.93
44839;BME280;30576;42.098;24.876;2023-06-24T00:48:23;99661.31;;;22.33;66.78
44839;BME280;30576;42.098;24.876;2023-06-24T00:50:49;99674.00;;;22.31;66.99
44839;BME280;30576;42.098;24.876;2023-06-24T00:53:16;99669.66;;;22.43;66.81
44839;BME280;30576;42.098;24.876;2023-06-24T00:55:41;99626.19;;;22.22;67.18
44839;BME280;30576;42.098;24.876;2023-06-24T00:58:07;99623.03;;;22.15;67.60
44839;BME280;30576;42.098;24.876;2023-06-24T01:00:33;99617.22;;;21.94;68.18
44839;BME280;30576;42.098;24.876;2023-06-24T01:02:59;99634.75;;;21.71;68.97
44839;BME280;30576;42.098;24.876;2023-06-24T01:05:26;99636.56;;;21.56;68.89
44839;BME280;30576;42.098;24.876;2023-06-24T01:07:52;99630.53;;;21.67;68.98
44839;BME280;30576;42.098;24.876;2023-06-24T01:10:22;99633.22;;;21.67;68.54
44839;BME280;30576;42.098;24.876;2023-06-24T01:12:50;99659.00;;;21.84;68.07
44839;BME280;30576;42.098;24.876;2023-06-24T01:15:16;99641.38;;;21.80;68.07
44839;BME280;30576;42.098;24.876;2023-06-24T01:17:47;99626.81;;;21.55;68.27
44839;BME280;30576;42.098;24.876;2023-06-24T01:28:59;99663.81;;;22.08;67.08
44839;BME280;30576;42.098;24.876;2023-06-24T01:31:42;99650.13;;;21.69;68.07
44839;BME280;30576;42.098;24.876;2023-06-24T01:34:41;99616.69;;;21.44;69.27
44839;BME280;30576;42.098;24.876;2023-06-24T01:37:25;99654.41;;;21.57;69.15
44839;BME280;30576;42.098;24.876;2023-06-24T01:40:04;99634.03;;;21.39;68.72
44839;BME280;30576;42.098;24.876;2023-06-24T01:42:42;99656.59;;;21.20;69.77
44839;BME280;30576;42.098;24.876;2023-06-24T01:45:20;99628.09;;;21.03;69.57
44839;BME280;30576;42.098;24.876;2023-06-24T01:47:48;99618.81;;;20.95;69.10
44839;BME280;30576;42.098;24.876;2023-06-24T01:50:21;99645.66;;;21.09;69.46
44839;BME280;30576;42.098;24.876;2023-06-24T01:52:50;99653.53;;;21.12;69.49
44839;BME280;30576;42.098;24.876;2023-06-24T01:55:19;99656.28;;;21.10;69.62
44839;BME280;30576;42.098;24.876;2023-06-24T01:57:48;99667.09;;;21.09;69.72
44839;BME280;30576;42.098;24.876;2023-06-24T02:00:15;99624.81;;;20.84;70.03
44839;BME280;30576;42.098;24.876;2023-06-24T02:02:43;99633.16;;;20.93;69.51
44839;BME280;30576;42.098;24.876;2023-06-24T02:05:10;99631.31;;;20.94;69.42
44839;BME280;30576;42.098;24.876;2023-06-24T02:07:37;99642.13;;;20.92;69.51
44839;BME280;30576;42.098;24.876;2023-06-24T02:10:04;99660.09;;;21.06;69.35
44839;BME280;30576;42.098;24.876;2023-06-24T02:12:31;99662.16;;;21.17;68.63
44839;BME280;30576;42.098;24.876;2023-06-24T02:14:58;99644.78;;;21.08;68.21
44839;BME280;30576;42.098;24.876;2023-06-24T02:17:25;99626.84;;;20.95;68.18
44839;BME280;30576;42.098;24.876;2023-06-24T02:19:55;99668.63;;;21.13;68.23
44839;BME280;30576;42.098;24.876;2023-06-24T02:22:21;99665.22;;;21.25;67.96
44839;BME280;30576;42.098;24.876;2023-06-24T02:24:49;99674.63;;;21.33;67.86
44839;BME280;30576;42.098;24.876;2023-06-24T02:27:16;99649.31;;;21.22;67.51
44839;BME280;30576;42.098;24.876;2023-06-24T02:29:42;99684.91;;;21.40;67.18
44839;BME280;30576;42.098;24.876;2023-06-24T02:32:09;99665.75;;;21.32;67.12
44839;BME280;30576;42.098;24.876;2023-06-24T02:34:35;99702.66;;;21.43;67.38
44839;BME280;30576;42.098;24.876;2023-06-24T02:37:00;99678.25;;;21.17;67.57
44839;BME280;30576;42.098;24.876;2023-06-24T02:39:26;99693.34;;;21.34;67.20
44839;BME280;30576;42.098;24.876;2023-06-24T02:41:51;99687.56;;;21.26;67.34
44839;BME280;30576;42.098;24.876;2023-06-24T02:44:17;99717.88;;;21.42;67.06
44839;BME280;30576;42.098;24.876;2023-06-24T02:46:43;99711.25;;;21.34;67.32
44839;BME280;30576;42.098;24.876;2023-06-24T02:49:12;99660.09;;;21.06;67.17
44839;BME280;30576;42.098;24.876;2023-06-24T02:51:39;99707.59;;;21.35;66.92
44839;BME280;30576;42.098;24.876;2023-06-24T02:54:06;99688.59;;;21.23;66.71
44839;BME280;30576;42.098;24.876;2023-06-24T02:56:32;99705.19;;;21.30;66.90
44839;BME280;30576;42.098;24.876;2023-06-24T02:58:57;99697.78;;;21.19;66.90
44839;BME280;30576;42.098;24.876;2023-06-24T03:01:23;99697.69;;;21.21;67.10
44839;BME280;30576;42.098;24.876;2023-06-24T03:03:53;99695.72;;;21.24;67.00
44839;BME280;30576;42.098;24.876;2023-06-24T03:06:19;99703.13;;;21.35;66.56
44839;BME280;30576;42.098;24.876;2023-06-24T03:08:45;99716.72;;;21.32;66.89
44839;BME280;30576;42.098;24.876;2023-06-24T03:11:14;99711.72;;;21.26;66.66
44839;BME280;30576;42.098;24.876;2023-06-24T03:13:41;99735.03;;;21.40;66.83
44839;BME280;30576;42.098;24.876;2023-06-24T03:16:06;99717.97;;;21.41;66.97
44839;BME280;30576;42.098;24.876;2023-06-24T03:18:39;99726.09;;;21.55;66.79
44839;BME280;30576;42.098;24.876;2023-06-24T03:21:04;99730.88;;;21.50;66.86
44839;BME280;30576;42.098;24.876;2023-06-24T03:23:30;99724.31;;;21.40;66.91
44839;BME280;30576;42.098;24.876;2023-06-24T03:25:56;99709.69;;;21.29;66.96
44839;BME280;30576;42.098;24.876;2023-06-24T03:28:21;99719.78;;;21.40;67.29
44839;BME280;30576;42.098;24.876;2023-06-24T03:30:47;99701.00;;;21.40;66.84
44839;BME280;30576;42.098;24.876;2023-06-24T03:33:12;99683.63;;;21.32;66.92
44839;BME280;30576;42.098;24.876;2023-06-24T03:35:42;99724.69;;;21.48;67.03
44839;BME280;30576;42.098;24.876;2023-06-24T03:38:08;99743.91;;;21.56;66.73
44839;BME280;30576;42.098;24.876;2023-06-24T03:40:34;99731.38;;;21.41;67.05
44839;BME280;30576;42.098;24.876;2023-06-24T03:42:59;99721.81;;;21.37;66.76
44839;BME280;30576;42.098;24.876;2023-06-24T03:45:25;99717.88;;;21.58;66.42
44839;BME280;30576;42.098;24.876;2023-06-24T03:47:50;99709.06;;;21.40;67.10
44839;BME280;30576;42.098;24.876;2023-06-24T03:50:16;99724.56;;;21.51;67.02
44839;BME280;30576;42.098;24.876;2023-06-24T03:52:41;99691.03;;;21.42;66.98
44839;BME280;30576;42.098;24.876;2023-06-24T03:55:07;99714.72;;;21.66;66.88
44839;BME280;30576;42.098;24.876;2023-06-24T03:57:33;99721.94;;;21.80;67.07
44839;BME280;30576;42.098;24.876;2023-06-24T03:59:58;99722.88;;;21.79;67.79
44839;BME280;30576;42.098;24.876;2023-06-24T04:02:23;99731.31;;;21.87;68.45
44839;BME280;30576;42.098;24.876;2023-06-24T04:04:49;99707.72;;;21.63;68.80
44839;BME280;30576;42.098;24.876;2023-06-24T04:07:16;99716.38;;;21.83;68.53
44839;BME280;30576;42.098;24.876;2023-06-24T04:09:53;99727.13;;;21.97;68.57
44839;BME280;30576;42.098;24.876;2023-06-24T04:12:19;99739.31;;;22.03;68.68
44839;BME280;30576;42.098;24.876;2023-06-24T04:14:45;99696.41;;;21.87;68.46
44839;BME280;30576;42.098;24.876;2023-06-24T04:17:10;99701.13;;;22.12;67.22
44839;BME280;30576;42.098;24.876;2023-06-24T04:19:35;99735.56;;;22.20;67.20
44839;BME280;30576;42.098;24.876;2023-06-24T04:22:01;99729.91;;;22.10;66.49
44839;BME280;30576;42.098;24.876;2023-06-24T04:24:26;99694.22;;;21.94;66.06
44839;BME280;30576;42.098;24.876;2023-06-24T04:26:56;99749.19;;;22.17;65.80
44839;BME280;30576;42.098;24.876;2023-06-24T04:29:21;99737.00;;;21.97;65.95
44839;BME280;30576;42.098;24.876;2023-06-24T04:31:47;99724.44;;;21.97;65.62
44839;BME280;30576;42.098;24.876;2023-06-24T04:34:12;99730.50;;;22.15;65.13
44839;BME280;30576;42.098;24.876;2023-06-24T04:36:38;99734.50;;;22.23;64.47
44839;BME280;30576;42.098;24.876;2023-06-24T04:39:04;99758.28;;;22.29;64.11
44839;BME280;30576;42.098;24.876;2023-06-24T04:41:29;99689.53;;;21.97;64.17
44839;BME280;30576;42.098;24.876;2023-06-24T04:43:57;99716.56;;;21.94;64.46
44839;BME280;30576;42.098;24.876;2023-06-24T04:46:23;99758.91;;;22.48;63.87
44839;BME280;30576;42.098;24.876;2023-06-24T04:48:48;99751.66;;;22.78;62.43
44839;BME280;30576;42.098;24.876;2023-06-24T04:51:14;99755.59;;;22.86;62.00
44839;BME280;30576;42.098;24.876;2023-06-24T04:53:40;99757.81;;;23.07;61.35
44839;BME280;30576;42.098;24.876;2023-06-24T04:56:06;99768.97;;;23.42;60.83
44839;BME280;30576;42.098;24.876;2023-06-24T04:58:31;99752.72;;;23.44;60.10
44839;BME280;30576;42.098;24.876;2023-06-24T05:00:57;99751.56;;;23.74;59.58
44839;BME280;30576;42.098;24.876;2023-06-24T05:03:24;99767.69;;;24.14;58.15
44839;BME280;30576;42.098;24.876;2023-06-24T05:05:49;99738.72;;;24.18;57.63
44839;BME280;30576;42.098;24.876;2023-06-24T05:08:15;99736.63;;;24.21;56.86
44839;BME280;30576;42.098;24.876;2023-06-24T05:10:40;99751.06;;;24.46;56.73
44839;BME280;30576;42.098;24.876;2023-06-24T05:13:05;99780.56;;;24.86;56.82
44839;BME280;30576;42.098;24.876;2023-06-24T05:15:31;99790.78;;;24.94;56.26
44839;BME280;30576;42.098;24.876;2023-06-24T05:17:56;99790.66;;;24.95;55.19
44839;BME280;30576;42.098;24.876;2023-06-24T05:20:22;99800.44;;;25.09;56.16
44839;BME280;30576;42.098;24.876;2023-06-24T05:22:47;99783.06;;;24.76;56.61
44839;BME280;30576;42.098;24.876;2023-06-24T05:25:13;99774.44;;;25.08;56.42
44839;BME280;30576;42.098;24.876;2023-06-24T05:27:39;99782.72;;;25.18;56.37
44839;BME280;30576;42.098;24.876;2023-06-24T05:30:05;99779.34;;;25.27;56.67
44839;BME280;30576;42.098;24.876;2023-06-24T05:32:31;99760.13;;;25.19;55.12
44839;BME280;30576;42.098;24.876;2023-06-24T05:34:57;99750.19;;;25.32;56.93
44839;BME280;30576;42.098;24.876;2023-06-24T05:37:22;99762.59;;;26.06;58.04
44839;BME280;30576;42.098;24.876;2023-06-24T05:39:48;99753.63;;;26.28;54.35
44839;BME280;30576;42.098;24.876;2023-06-24T05:42:13;99733.47;;;26.43;54.01
44839;BME280;30576;42.098;24.876;2023-06-24T05:44:39;99771.22;;;26.79;53.18
44839;BME280;30576;42.098;24.876;2023-06-24T05:47:05;99810.56;;;26.72;53.04
44839;BME280;30576;42.098;24.876;2023-06-24T05:49:30;99766.66;;;26.45;53.12
44839;BME280;30576;42.098;24.876;2023-06-24T05:51:56;99805.44;;;27.12;51.32
44839;BME280;30576;42.098;24.876;2023-06-24T05:54:24;99718.09;;;26.33;50.24
44839;BME280;30576;42.098;24.876;2023-06-24T05:56:49;99777.47;;;26.79;51.46
44839;BME280;30576;42.098;24.876;2023-06-24T05:59:15;99740.44;;;26.80;51.25
44839;BME280;30576;42.098;24.876;2023-06-24T06:01:41;99742.63;;;26.86;49.25
44839;BME280;30576;42.098;24.876;2023-06-24T06:04:07;99748.56;;;26.80;49.46
44839;BME280;30576;42.098;24.876;2023-06-24T06:06:32;99779.13;;;27.14;50.39
44839;BME280;30576;42.098;24.876;2023-06-24T06:08:59;99736.66;;;27.15;51.45
44839;BME280;30576;42.098;24.876;2023-06-24T06:11:24;99808.06;;;27.58;50.09
44839;BME280;30576;42.098;24.876;2023-06-24T06:13:50;99746.78;;;27.13;49.45
44839;BME280;30576;42.098;24.876;2023-06-24T06:16:16;99741.44;;;27.23;48.45
44839;BME280;30576;42.098;24.876;2023-06-24T06:18:44;99729.53;;;27.14;48.58
44839;BME280;30576;42.098;24.876;2023-06-24T06:21:10;99763.94;;;27.67;48.39
44839;BME280;30576;42.098;24.876;2023-06-24T06:23:35;99737.09;;;27.64;48.45
44839;BME280;30576;42.098;24.876;2023-06-24T06:26:01;99728.56;;;28.11;47.40
44839;BME280;30576;42.098;24.876;2023-06-24T06:28:27;99722.56;;;28.07;47.07
44839;BME280;30576;42.098;24.876;2023-06-24T06:30:53;99723.72;;;28.14;45.96
44839;BME280;30576;42.098;24.876;2023-06-24T06:33:18;99697.69;;;28.02;46.21
44839;BME280;30576;42.098;24.876;2023-06-24T06:35:45;99721.28;;;28.11;47.28
44839;BME280;30576;42.098;24.876;2023-06-24T06:38:11;99783.88;;;28.91;47.95
44839;BME280;30576;42.098;24.876;2023-06-24T06:40:36;99754.97;;;29.40;45.69
44839;BME280;30576;42.098;24.876;2023-06-24T06:43:02;99732.47;;;29.19;45.35
44839;BME280;30576;42.098;24.876;2023-06-24T06:45:35;99699.31;;;28.96;44.05
44839;BME280;30576;42.098;24.876;2023-06-24T06:48:02;99667.91;;;28.52;44.45
44839;BME280;30576;42.098;24.876;2023-06-24T06:50:32;99704.34;;;29.49;44.04
44839;BME280;30576;42.098;24.876;2023-06-24T06:52:59;99684.63;;;29.37;44.13
44839;BME280;30576;42.098;24.876;2023-06-24T06:55:24;99727.69;;;30.09;43.52
44839;BME280;30576;42.098;24.876;2023-06-24T06:57:51;99693.66;;;30.05;44.34
44839;BME280;30576;42.098;24.876;2023-06-24T07:00:16;99717.50;;;29.54;43.78
44839;BME280;30576;42.098;24.876;2023-06-24T07:02:42;99703.16;;;29.71;44.34
44839;BME280;30576;42.098;24.876;2023-06-24T07:05:09;99717.56;;;30.01;45.74
44839;BME280;30576;42.098;24.876;2023-06-24T07:07:39;99694.41;;;30.62;43.54
44839;BME280;30576;42.098;24.876;2023-06-24T07:10:07;99747.50;;;31.58;42.26
44839;BME280;30576;42.098;24.876;2023-06-24T07:12:34;99703.66;;;31.33;41.76
44839;BME280;30576;42.098;24.876;2023-06-24T07:14:59;99714.75;;;30.86;41.43
44839;BME280;30576;42.098;24.876;2023-06-24T07:17:27;99731.00;;;31.05;43.25
44839;BME280;30576;42.098;24.876;2023-06-24T07:19:53;99703.50;;;30.53;43.50
44839;BME280;30576;42.098;24.876;2023-06-24T07:22:19;99692.63;;;31.35;43.72
44839;BME280;30576;42.098;24.876;2023-06-24T07:24:44;99681.19;;;31.31;41.85
44839;BME280;30576;42.098;24.876;2023-06-24T07:27:11;99674.63;;;31.24;41.68
44839;BME280;30576;42.098;24.876;2023-06-24T07:29:43;99654.28;;;31.81;39.99
44839;BME280;30576;42.098;24.876;2023-06-24T07:32:09;99699.84;;;31.88;40.64
44839;BME280;30576;42.098;24.876;2023-06-24T07:34:34;99712.03;;;31.76;40.39
44839;BME280;30576;42.098;24.876;2023-06-24T07:37:00;99645.50;;;31.61;40.40
44839;BME280;30576;42.098;24.876;2023-06-24T07:39:25;99685.38;;;31.26;42.36
44839;BME280;30576;42.098;24.876;2023-06-24T07:41:52;99674.53;;;31.52;41.51
44839;BME280;30576;42.098;24.876;2023-06-24T07:44:17;99733.97;;;31.92;40.85
44839;BME280;30576;42.098;24.876;2023-06-24T07:46:44;99723.69;;;31.86;42.27
44839;BME280;30576;42.098;24.876;2023-06-24T07:49:10;99703.19;;;31.82;42.42
44839;BME280;30576;42.098;24.876;2023-06-24T07:51:35;99698.44;;;32.37;39.35
44839;BME280;30576;42.098;24.876;2023-06-24T07:54:01;99685.34;;;32.14;38.34
44839;BME280;30576;42.098;24.876;2023-06-24T07:56:26;99710.69;;;31.36;39.53
44839;BME280;30576;42.098;24.876;2023-06-24T07:58:52;99701.50;;;31.01;40.88
44839;BME280;30576;42.098;24.876;2023-06-24T08:01:18;99688.00;;;31.53;41.71
44839;BME280;30576;42.098;24.876;2023-06-24T08:03:43;99711.00;;;32.29;38.92
44839;BME280;30576;42.098;24.876;2023-06-24T08:06:09;99706.88;;;32.60;42.29
44839;BME280;30576;42.098;24.876;2023-06-24T08:08:34;99694.97;;;33.20;37.25
44839;BME280;30576;42.098;24.876;2023-06-24T08:11:02;99705.66;;;33.05;37.21
44839;BME280;30576;42.098;24.876;2023-06-24T08:13:28;99673.75;;;31.86;39.63
44839;BME280;30576;42.098;24.876;2023-06-24T08:15:53;99705.09;;;32.93;39.32
44839;BME280;30576;42.098;24.876;2023-06-24T08:18:19;99687.81;;;32.68;37.28
44839;BME280;30576;42.098;24.876;2023-06-24T08:20:44;99708.63;;;33.45;36.53
44839;BME280;30576;42.098;24.876;2023-06-24T08:23:10;99673.75;;;33.55;35.65
44839;BME280;30576;42.098;24.876;2023-06-24T08:25:35;99737.28;;;34.15;35.93
44839;BME280;30576;42.098;24.876;2023-06-24T08:28:01;99697.00;;;33.51;35.13
44839;BME280;30576;42.098;24.876;2023-06-24T08:30:26;99699.31;;;32.88;37.05
44839;BME280;30576;42.098;24.876;2023-06-24T08:32:52;99683.91;;;32.71;36.69
44839;BME280;30576;42.098;24.876;2023-06-24T08:35:17;99695.44;;;33.15;35.76
44839;BME280;30576;42.098;24.876;2023-06-24T08:37:43;99698.84;;;33.92;34.78
44839;BME280;30576;42.098;24.876;2023-06-24T08:40:09;99727.88;;;34.25;36.87
44839;BME280;30576;42.098;24.876;2023-06-24T08:42:35;99665.34;;;33.81;36.88
44839;BME280;30576;42.098;24.876;2023-06-24T08:45:01;99665.53;;;33.88;35.35
44839;BME280;30576;42.098;24.876;2023-06-24T08:47:28;99683.09;;;33.94;34.36
44839;BME280;30576;42.098;24.876;2023-06-24T08:50:05;99718.72;;;34.50;35.22
44839;BME280;30576;42.098;24.876;2023-06-24T08:52:35;99668.28;;;33.55;35.65
44839;BME280;30576;42.098;24.876;2023-06-24T08:55:02;99696.09;;;34.00;35.68
44839;BME280;30576;42.098;24.876;2023-06-24T08:57:29;99690.50;;;33.60;35.54
44839;BME280;30576;42.098;24.876;2023-06-24T08:59:55;99676.09;;;32.92;36.47
44839;BME280;30576;42.098;24.876;2023-06-24T09:02:20;99708.94;;;33.17;38.73
44839;BME280;30576;42.098;24.876;2023-06-24T09:04:46;99675.25;;;33.00;38.79
44839;BME280;30576;42.098;24.876;2023-06-24T09:07:11;99705.72;;;33.54;39.91
44839;BME280;30576;42.098;24.876;2023-06-24T09:09:44;99704.66;;;34.05;37.08
44839;BME280;30576;42.098;24.876;2023-06-24T09:12:12;99713.66;;;34.14;36.44
44839;BME280;30576;42.098;24.876;2023-06-24T09:14:38;99690.66;;;33.50;36.54
44839;BME280;30576;42.098;24.876;2023-06-24T09:17:03;99665.72;;;33.86;36.94
44839;BME280;30576;42.098;24.876;2023-06-24T09:19:29;99675.50;;;34.68;35.20
44839;BME280;30576;42.098;24.876;2023-06-24T09:21:56;99666.78;;;34.96;35.93
44839;BME280;30576;42.098;24.876;2023-06-24T09:24:29;99685.78;;;34.97;35.88
44839;BME280;30576;42.098;24.876;2023-06-24T09:26:56;99664.78;;;34.90;33.74
44839;BME280;30576;42.098;24.876;2023-06-24T09:29:25;99698.69;;;34.89;34.25
44839;BME280;30576;42.098;24.876;2023-06-24T09:31:52;99673.19;;;34.49;34.71
44839;BME280;30576;42.098;24.876;2023-06-24T09:34:19;99664.75;;;34.27;34.90
44839;BME280;30576;42.098;24.876;2023-06-24T09:36:45;99683.63;;;33.97;35.08
44839;BME280;30576;42.098;24.876;2023-06-24T09:39:17;99630.59;;;33.98;35.03
44839;BME280;30576;42.098;24.876;2023-06-24T09:41:43;99662.03;;;34.11;37.08
44839;BME280;30576;42.098;24.876;2023-06-24T09:44:12;99674.00;;;34.57;36.78
44839;BME280;30576;42.098;24.876;2023-06-24T09:46:38;99672.31;;;34.88;34.22
44839;BME280;30576;42.098;24.876;2023-06-24T09:49:04;99632.75;;;34.19;34.87
44839;BME280;30576;42.098;24.876;2023-06-24T09:51:33;99632.41;;;34.62;35.64
44839;BME280;30576;42.098;24.876;2023-06-24T09:54:07;99601.22;;;34.63;36.20
44839;BME280;30576;42.098;24.876;2023-06-24T09:56:37;99572.06;;;35.17;34.06
44839;BME280;30576;42.098;24.876;2023-06-24T09:59:06;99608.19;;;34.97;33.73
44839;BME280;30576;42.098;24.876;2023-06-24T10:01:33;99614.00;;;35.02;33.84
44839;BME280;30576;42.098;24.876;2023-06-24T10:04:01;99589.59;;;34.61;34.53
44839;BME280;30576;42.098;24.876;2023-06-24T10:06:27;99638.09;;;35.07;35.54
44839;BME280;30576;42.098;24.876;2023-06-24T10:08:53;99586.06;;;34.52;34.11
44839;BME280;30576;42.098;24.876;2023-06-24T10:11:19;99611.44;;;34.77;33.89
44839;BME280;30576;42.098;24.876;2023-06-24T10:13:45;99578.28;;;34.64;37.07
44839;BME280;30576;42.098;24.876;2023-06-24T10:16:11;99569.75;;;34.36;34.41
44839;BME280;30576;42.098;24.876;2023-06-24T10:18:38;99553.69;;;34.33;33.06
44839;BME280;30576;42.098;24.876;2023-06-24T10:21:05;99607.03;;;35.14;33.50
44839;BME280;30576;42.098;24.876;2023-06-24T10:23:57;99597.66;;;35.32;34.50
44839;BME280;30576;42.098;24.876;2023-06-24T10:26:29;99614.22;;;35.15;36.18
44839;BME280;30576;42.098;24.876;2023-06-24T10:31:51;99577.34;;;35.41;35.72
44839;BME280;30576;42.098;24.876;2023-06-24T10:34:24;99598.72;;;35.46;34.61
44839;BME280;30576;42.098;24.876;2023-06-24T10:37:05;99616.94;;;35.39;34.02
44839;BME280;30576;42.098;24.876;2023-06-24T10:39:44;99540.94;;;35.09;35.14
44839;BME280;30576;42.098;24.876;2023-06-24T10:44:58;99568.50;;;34.70;34.72
44839;BME280;30576;42.098;24.876;2023-06-24T10:47:26;99562.50;;;35.12;34.72
44839;BME280;30576;42.098;24.876;2023-06-24T10:49:52;99532.41;;;34.89;35.09
44839;BME280;30576;42.098;24.876;2023-06-24T10:52:21;99540.69;;;34.81;35.34
44839;BME280;30576;42.098;24.876;2023-06-24T10:54:48;99529.00;;;35.40;34.95
44839;BME280;30576;42.098;24.876;2023-06-24T10:57:14;99512.66;;;34.94;34.30
44839;BME280;30576;42.098;24.876;2023-06-24T10:59:40;99540.19;;;35.01;33.59
44839;BME280;30576;42.098;24.876;2023-06-24T11:02:13;99520.59;;;34.89;35.10
44839;BME280;30576;42.098;24.876;2023-06-24T11:04:49;99538.59;;;35.06;34.70
44839;BME280;30576;42.098;24.876;2023-06-24T11:07:18;99521.16;;;35.37;34.23
44839;BME280;30576;42.098;24.876;2023-06-24T11:09:51;99495.88;;;35.12;33.68
44839;BME280;30576;42.098;24.876;2023-06-24T11:12:18;99476.25;;;35.08;35.69
44839;BME280;30576;42.098;24.876;2023-06-24T11:14:44;99535.75;;;35.67;34.85
44839;BME280;30576;42.098;24.876;2023-06-24T11:17:10;99503.78;;;35.45;34.31
44839;BME280;30576;42.098;24.876;2023-06-24T11:19:35;99462.22;;;35.93;33.56
44839;BME280;30576;42.098;24.876;2023-06-24T11:22:06;99485.59;;;35.74;33.58
44839;BME280;30576;42.098;24.876;2023-06-24T11:24:32;99474.06;;;35.93;34.48
44839;BME280;30576;42.098;24.876;2023-06-24T11:26:58;99470.19;;;35.73;32.73
44839;BME280;30576;42.098;24.876;2023-06-24T11:29:24;99477.47;;;35.80;33.33
44839;BME280;30576;42.098;24.876;2023-06-24T11:31:50;99436.72;;;35.77;32.91
44839;BME280;30576;42.098;24.876;2023-06-24T11:34:16;99445.56;;;35.94;33.07
44839;BME280;30576;42.098;24.876;2023-06-24T11:36:42;99449.19;;;36.16;33.09
44839;BME280;30576;42.098;24.876;2023-06-24T11:39:08;99452.16;;;36.00;32.66
44839;BME280;30576;42.098;24.876;2023-06-24T11:41:37;99418.81;;;35.66;32.40
44839;BME280;30576;42.098;24.876;2023-06-24T11:44:09;99423.72;;;35.71;32.18
44839;BME280;30576;42.098;24.876;2023-06-24T11:46:35;99460.53;;;35.62;31.48
44839;BME280;30576;42.098;24.876;2023-06-24T11:49:06;99487.81;;;35.78;31.84
44839;BME280;30576;42.098;24.876;2023-06-24T11:51:33;99442.66;;;35.66;31.56
44839;BME280;30576;42.098;24.876;2023-06-24T11:54:01;99430.75;;;35.59;32.85
44839;BME280;30576;42.098;24.876;2023-06-24T11:56:37;99442.78;;;35.58;31.96
44839;BME280;30576;42.098;24.876;2023-06-24T11:59:14;99413.81;;;35.70;31.13
44839;BME280;30576;42.098;24.876;2023-06-24T12:01:42;99419.84;;;35.44;30.47
44839;BME280;30576;42.098;24.876;2023-06-24T12:04:17;99416.88;;;35.97;33.31
44839;BME280;30576;42.098;24.876;2023-06-24T12:06:43;99474.66;;;36.10;30.46
44839;BME280;30576;42.098;24.876;2023-06-24T12:09:09;99427.88;;;35.97;30.73
44839;BME280;30576;42.098;24.876;2023-06-24T12:11:35;99406.81;;;35.82;31.36
44839;BME280;30576;42.098;24.876;2023-06-24T12:14:01;99434.34;;;36.54;30.43
44839;BME280;30576;42.098;24.876;2023-06-24T12:16:29;99392.34;;;36.60;30.72
44839;BME280;30576;42.098;24.876;2023-06-24T12:18:55;99411.78;;;36.30;30.21
44839;BME280;30576;42.098;24.876;2023-06-24T12:21:22;99386.75;;;36.25;31.19
44839;BME280;30576;42.098;24.876;2023-06-24T12:23:47;99403.44;;;36.45;30.00
44839;BME280;30576;42.098;24.876;2023-06-24T12:26:13;99398.06;;;36.15;32.88
44839;BME280;30576;42.098;24.876;2023-06-24T12:28:39;99429.63;;;36.69;29.69
44839;BME280;30576;42.098;24.876;2023-06-24T12:31:04;99386.97;;;36.73;30.86
44839;BME280;30576;42.098;24.876;2023-06-24T12:33:30;99389.22;;;36.63;30.78
44839;BME280;30576;42.098;24.876;2023-06-24T12:35:56;99387.94;;;36.37;31.19
44839;BME280;30576;42.098;24.876;2023-06-24T12:38:21;99378.41;;;35.90;31.25
44839;BME280;30576;42.098;24.876;2023-06-24T12:40:47;99345.97;;;36.22;31.64
44839;BME280;30576;42.098;24.876;2023-06-24T12:43:14;99371.78;;;36.49;30.84
44839;BME280;30576;42.098;24.876;2023-06-24T12:45:40;99358.81;;;36.36;30.27
44839;BME280;30576;42.098;24.876;2023-06-24T12:48:08;99331.22;;;36.23;30.65
44839;BME280;30576;42.098;24.876;2023-06-24T12:50:34;99337.53;;;36.45;29.86
44839;BME280;30576;42.098;24.876;2023-06-24T12:53:00;99373.16;;;36.67;29.31
44839;BME280;30576;42.098;24.876;2023-06-24T12:55:25;99330.03;;;36.11;30.75
44839;BME280;30576;42.098;24.876;2023-06-24T12:57:51;99332.94;;;35.44;32.35
44839;BME280;30576;42.098;24.876;2023-06-24T13:00:19;99335.94;;;35.86;30.54
44839;BME280;30576;42.098;24.876;2023-06-24T13:02:48;99332.84;;;35.96;30.12
44839;BME280;30576;42.098;24.876;2023-06-24T13:05:14;99306.59;;;36.08;30.81